sensor_id;sensor_type;location;lat;lon;timestamp;P1;durP1;ratioP1;P2;durP2;ratioP2
65684;SDS011;52405;50.844;-1.062;2022-12-29T00:01:49;19.90;;;3.78;;
65684;SDS011;52405;50.844;-1.062;2022-12-29T00:04:16;28.50;;;6.05;;
65684;SDS011;52405;50.844;-1.062;2022-12-29T00:06:44;17.23;;;4.40;;
65684;SDS011;52405;50.844;-1.062;2022-12-29T00:09:10;25.67;;;5.07;;
65684;SDS011;52405;50.844;-1.062;2022-12-29T00:11:40;25.85;;;5.97;;
65684;SDS011;52405;50.844;-1.062;2022-12-29T00:14:11;19.92;;;3.90;;
65684;SDS011;52405;50.844;-1.062;2022-12-29T00:16:55;23.17;;;5.15;;
65684;SDS011;52405;50.844;-1.062;2022-12-29T00:19:24;27.02;;;4.65;;
65684;SDS011;52405;50.844;-1.062;2022-12-29T00:22:10;26.45;;;4.72;;
65684;SDS011;52405;50.844;-1.062;2022-12-29T00:24:55;21.27;;;6.05;;
65684;SDS011;52405;50.844;-1.062;2022-12-29T00:27:40;33.25;;;6.82;;
65684;SDS011;52405;50.844;-1.062;2022-12-29T00:30:24;33.55;;;4.93;;
65684;SDS011;52405;50.844;-1.062;2022-12-29T00:33:12;32.92;;;6.97;;
65684;SDS011;52405;50.844;-1.062;2022-12-29T00:36:01;27.33;;;6.45;;
65684;SDS011;52405;50.844;-1.062;2022-12-29T00:39:06;24.75;;;7.50;;
65684;SDS011;52405;50.844;-1.062;2022-12-29T00:41:56;33.55;;;5.88;;
65684;SDS011;52405;50.844;-1.062;2022-12-29T00:44:46;31.40;;;6.40;;
65684;SDS011;52405;50.844;-1.062;2022-12-29T00:47:11;28.10;;;5.97;;
65684;SDS011;52405;50.844;-1.062;2022-12-29T00:49:36;37.70;;;6.00;;
65684;SDS011;52405;50.844;-1.062;2022-12-29T00:52:06;26.98;;;4.63;;
65684;SDS011;52405;50.844;-1.062;2022-12-29T00:54:34;29.05;;;6.75;;
65684;SDS011;52405;50.844;-1.062;2022-12-29T00:57:02;20.73;;;4.65;;
65684;SDS011;52405;50.844;-1.062;2022-12-29T00:59:28;14.98;;;2.95;;
65684;SDS011;52405;50.844;-1.062;2022-12-29T01:01:54;21.42;;;4.75;;
65684;SDS011;52405;50.844;-1.062;2022-12-29T01:04:21;11.38;;;3.05;;
65684;SDS011;52405;50.844;-1.062;2022-12-29T01:06:48;13.50;;;3.42;;
65684;SDS011;52405;50.844;-1.062;2022-12-29T01:09:13;14.98;;;3.70;;
65684;SDS011;52405;50.844;-1.062;2022-12-29T01:12:00;16.13;;;3.00;;
65684;SDS011;52405;50.844;-1.062;2022-12-29T01:14:28;19.73;;;4.35;;
65684;SDS011;52405;50.844;-1.062;2022-12-29T01:16:54;15.23;;;3.55;;
65684;SDS011;52405;50.844;-1.062;2022-12-29T01:19:20;24.90;;;3.72;;
65684;SDS011;52405;50.844;-1.062;2022-12-29T01:21:46;23.92;;;6.90;;
65684;SDS011;52405;50.844;-1.062;2022-12-29T01:24:17;31.73;;;5.93;;
65684;SDS011;52405;50.844;-1.062;2022-12-29T01:26:43;23.35;;;6.95;;
65684;SDS011;52405;50.844;-1.062;2022-12-29T01:29:09;35.03;;;6.07;;
65684;SDS011;52405;50.844;-1.062;2022-12-29T01:31:35;24.58;;;5.35;;
65684;SDS011;52405;50.844;-1.062;2022-12-29T01:34:01;24.17;;;5.75;;
65684;SDS011;52405;50.844;-1.062;2022-12-29T01:36:27;29.95;;;5.13;;
65684;SDS011;52405;50.844;-1.062;2022-12-29T01:38:52;26.35;;;7.00;;
65684;SDS011;52405;50.844;-1.062;2022-12-29T01:41:18;30.55;;;7.30;;
65684;SDS011;52405;50.844;-1.062;2022-12-29T01:43:53;36.22;;;8.02;;
65684;SDS011;52405;50.844;-1.062;2022-12-29T01:51:29;43.78;;;7.22;;
65684;SDS011;52405;50.844;-1.062;2022-12-29T01:54:01;28.00;;;7.70;;
65684;SDS011;52405;50.844;-1.062;2022-12-29T01:56:30;37.13;;;5.75;;
65684;SDS011;52405;50.844;-1.062;2022-12-29T01:59:00;36.72;;;6.50;;
65684;SDS011;52405;50.844;-1.062;2022-12-29T02:01:30;26.65;;;5.90;;
65684;SDS011;52405;50.844;-1.062;2022-12-29T02:03:55;25.85;;;6.40;;
65684;SDS011;52405;50.844;-1.062;2022-12-29T02:09:49;26.80;;;6.03;;
65684;SDS011;52405;50.844;-1.062;2022-12-29T02:12:16;37.30;;;6.72;;
65684;SDS011;52405;50.844;-1.062;2022-12-29T02:14:47;29.52;;;6.70;;
65684;SDS011;52405;50.844;-1.062;2022-12-29T02:20:11;57.50;;;9.20;;
65684;SDS011;52405;50.844;-1.062;2022-12-29T02:23:11;34.85;;;7.88;;
65684;SDS011;52405;50.844;-1.062;2022-12-29T02:31:43;36.47;;;8.00;;
65684;SDS011;52405;50.844;-1.062;2022-12-29T02:34:29;20.00;;;6.18;;
65684;SDS011;52405;50.844;-1.062;2022-12-29T02:37:19;29.33;;;6.80;;
65684;SDS011;52405;50.844;-1.062;2022-12-29T02:42:41;38.75;;;7.03;;
65684;SDS011;52405;50.844;-1.062;2022-12-29T02:47:48;32.78;;;6.57;;
65684;SDS011;52405;50.844;-1.062;2022-12-29T02:50:34;30.90;;;6.25;;
65684;SDS011;52405;50.844;-1.062;2022-12-29T02:53:04;35.50;;;7.93;;
65684;SDS011;52405;50.844;-1.062;2022-12-29T02:55:32;35.47;;;7.70;;
65684;SDS011;52405;50.844;-1.062;2022-12-29T03:18:15;28.00;;;7.20;;
65684;SDS011;52405;50.844;-1.062;2022-12-29T03:20:51;34.40;;;5.75;;
65684;SDS011;52405;50.844;-1.062;2022-12-29T03:23:22;41.05;;;7.05;;
65684;SDS011;52405;50.844;-1.062;2022-12-29T03:25:51;34.13;;;7.00;;
65684;SDS011;52405;50.844;-1.062;2022-12-29T03:28:22;33.72;;;8.98;;
65684;SDS011;52405;50.844;-1.062;2022-12-29T03:30:53;37.95;;;7.43;;
65684;SDS011;52405;50.844;-1.062;2022-12-29T03:33:24;34.03;;;6.57;;
65684;SDS011;52405;50.844;-1.062;2022-12-29T03:35:52;26.88;;;6.45;;
65684;SDS011;52405;50.844;-1.062;2022-12-29T03:38:38;38.17;;;7.45;;
65684;SDS011;52405;50.844;-1.062;2022-12-29T03:41:10;26.27;;;7.47;;
65684;SDS011;52405;50.844;-1.062;2022-12-29T03:43:40;29.25;;;7.07;;
65684;SDS011;52405;50.844;-1.062;2022-12-29T03:46:06;26.08;;;7.70;;
65684;SDS011;52405;50.844;-1.062;2022-12-29T03:48:31;38.65;;;6.80;;
65684;SDS011;52405;50.844;-1.062;2022-12-29T03:50:57;34.63;;;7.93;;
65684;SDS011;52405;50.844;-1.062;2022-12-29T03:53:23;31.90;;;7.47;;
65684;SDS011;52405;50.844;-1.062;2022-12-29T03:55:51;30.63;;;7.07;;
65684;SDS011;52405;50.844;-1.062;2022-12-29T03:58:17;32.80;;;9.32;;
65684;SDS011;52405;50.844;-1.062;2022-12-29T04:00:42;34.15;;;8.52;;
65684;SDS011;52405;50.844;-1.062;2022-12-29T04:03:08;38.60;;;8.13;;
65684;SDS011;52405;50.844;-1.062;2022-12-29T04:05:33;29.88;;;7.57;;
65684;SDS011;52405;50.844;-1.062;2022-12-29T04:07:59;30.67;;;7.40;;
65684;SDS011;52405;50.844;-1.062;2022-12-29T04:10:25;23.13;;;5.22;;
65684;SDS011;52405;50.844;-1.062;2022-12-29T04:12:50;28.98;;;7.50;;
65684;SDS011;52405;50.844;-1.062;2022-12-29T04:15:16;25.10;;;5.78;;
65684;SDS011;52405;50.844;-1.062;2022-12-29T04:17:41;22.88;;;5.75;;
65684;SDS011;52405;50.844;-1.062;2022-12-29T04:20:09;24.52;;;5.93;;
65684;SDS011;52405;50.844;-1.062;2022-12-29T04:22:59;33.65;;;7.10;;
65684;SDS011;52405;50.844;-1.062;2022-12-29T04:25:26;28.05;;;5.20;;
65684;SDS011;52405;50.844;-1.062;2022-12-29T04:27:51;30.80;;;7.32;;
65684;SDS011;52405;50.844;-1.062;2022-12-29T04:30:22;33.55;;;7.47;;
65684;SDS011;52405;50.844;-1.062;2022-12-29T04:32:49;36.22;;;7.47;;
65684;SDS011;52405;50.844;-1.062;2022-12-29T04:35:17;37.70;;;7.72;;
65684;SDS011;52405;50.844;-1.062;2022-12-29T04:37:43;30.25;;;7.90;;
65684;SDS011;52405;50.844;-1.062;2022-12-29T04:40:10;26.90;;;6.53;;
65684;SDS011;52405;50.844;-1.062;2022-12-29T04:42:36;36.08;;;8.55;;
65684;SDS011;52405;50.844;-1.062;2022-12-29T04:45:02;26.80;;;6.35;;
65684;SDS011;52405;50.844;-1.062;2022-12-29T04:47:31;39.95;;;6.43;;
65684;SDS011;52405;50.844;-1.062;2022-12-29T04:49:56;34.38;;;7.60;;
65684;SDS011;52405;50.844;-1.062;2022-12-29T04:52:22;27.73;;;6.03;;
65684;SDS011;52405;50.844;-1.062;2022-12-29T04:54:47;31.70;;;6.93;;
65684;SDS011;52405;50.844;-1.062;2022-12-29T04:57:13;27.83;;;5.88;;
65684;SDS011;52405;50.844;-1.062;2022-12-29T04:59:38;33.38;;;5.82;;
65684;SDS011;52405;50.844;-1.062;2022-12-29T05:02:04;36.45;;;5.47;;
65684;SDS011;52405;50.844;-1.062;2022-12-29T05:04:29;26.55;;;6.38;;
65684;SDS011;52405;50.844;-1.062;2022-12-29T05:06:54;30.55;;;7.43;;
65684;SDS011;52405;50.844;-1.062;2022-12-29T05:09:22;22.52;;;4.38;;
65684;SDS011;52405;50.844;-1.062;2022-12-29T05:11:51;15.88;;;3.65;;
65684;SDS011;52405;50.844;-1.062;2022-12-29T05:14:16;19.67;;;4.40;;
65684;SDS011;52405;50.844;-1.062;2022-12-29T05:16:44;18.48;;;4.07;;
65684;SDS011;52405;50.844;-1.062;2022-12-29T05:19:09;13.25;;;3.55;;
65684;SDS011;52405;50.844;-1.062;2022-12-29T05:21:35;14.52;;;2.67;;
65684;SDS011;52405;50.844;-1.062;2022-12-29T05:24:03;16.67;;;3.97;;
65684;SDS011;52405;50.844;-1.062;2022-12-29T05:26:28;14.70;;;3.50;;
65684;SDS011;52405;50.844;-1.062;2022-12-29T05:28:56;13.75;;;3.25;;
65684;SDS011;52405;50.844;-1.062;2022-12-29T05:31:21;14.82;;;2.53;;
65684;SDS011;52405;50.844;-1.062;2022-12-29T05:33:47;10.35;;;2.47;;
65684;SDS011;52405;50.844;-1.062;2022-12-29T05:36:12;13.57;;;2.10;;
65684;SDS011;52405;50.844;-1.062;2022-12-29T05:38:38;8.00;;;1.95;;
65684;SDS011;52405;50.844;-1.062;2022-12-29T05:41:03;7.75;;;1.73;;
65684;SDS011;52405;50.844;-1.062;2022-12-29T05:43:29;13.40;;;2.97;;
65684;SDS011;52405;50.844;-1.062;2022-12-29T05:45:54;11.40;;;1.92;;
65684;SDS011;52405;50.844;-1.062;2022-12-29T05:48:21;9.63;;;2.90;;
65684;SDS011;52405;50.844;-1.062;2022-12-29T05:50:49;8.90;;;1.80;;
65684;SDS011;52405;50.844;-1.062;2022-12-29T05:53:17;9.38;;;2.55;;
65684;SDS011;52405;50.844;-1.062;2022-12-29T05:55:43;7.15;;;1.67;;
65684;SDS011;52405;50.844;-1.062;2022-12-29T05:58:11;6.75;;;1.40;;
65684;SDS011;52405;50.844;-1.062;2022-12-29T06:00:36;6.53;;;1.75;;
65684;SDS011;52405;50.844;-1.062;2022-12-29T06:03:02;6.50;;;2.47;;
65684;SDS011;52405;50.844;-1.062;2022-12-29T06:05:27;9.95;;;1.95;;
65684;SDS011;52405;50.844;-1.062;2022-12-29T06:07:55;10.48;;;2.58;;
65684;SDS011;52405;50.844;-1.062;2022-12-29T06:10:21;7.90;;;2.38;;
65684;SDS011;52405;50.844;-1.062;2022-12-29T06:12:46;13.82;;;1.63;;
65684;SDS011;52405;50.844;-1.062;2022-12-29T06:15:14;6.70;;;2.22;;
65684;SDS011;52405;50.844;-1.062;2022-12-29T06:17:39;7.57;;;1.45;;
65684;SDS011;52405;50.844;-1.062;2022-12-29T06:20:08;7.63;;;1.73;;
65684;SDS011;52405;50.844;-1.062;2022-12-29T06:22:34;3.95;;;1.33;;
65684;SDS011;52405;50.844;-1.062;2022-12-29T06:25:00;6.95;;;1.45;;
65684;SDS011;52405;50.844;-1.062;2022-12-29T06:27:29;8.40;;;1.77;;
65684;SDS011;52405;50.844;-1.062;2022-12-29T06:29:54;8.98;;;1.52;;
65684;SDS011;52405;50.844;-1.062;2022-12-29T06:32:20;5.38;;;1.27;;
65684;SDS011;52405;50.844;-1.062;2022-12-29T06:34:45;7.63;;;1.70;;
65684;SDS011;52405;50.844;-1.062;2022-12-29T06:37:13;10.63;;;2.90;;
65684;SDS011;52405;50.844;-1.062;2022-12-29T06:39:41;5.10;;;1.15;;
65684;SDS011;52405;50.844;-1.062;2022-12-29T06:42:08;8.25;;;1.90;;
65684;SDS011;52405;50.844;-1.062;2022-12-29T06:44:36;4.65;;;1.30;;
65684;SDS011;52405;50.844;-1.062;2022-12-29T06:47:02;6.57;;;1.38;;
65684;SDS011;52405;50.844;-1.062;2022-12-29T06:49:27;5.13;;;1.48;;
65684;SDS011;52405;50.844;-1.062;2022-12-29T06:51:53;10.40;;;2.33;;
65684;SDS011;52405;50.844;-1.062;2022-12-29T06:54:18;8.30;;;1.25;;
65684;SDS011;52405;50.844;-1.062;2022-12-29T06:56:44;6.32;;;1.20;;
65684;SDS011;52405;50.844;-1.062;2022-12-29T06:59:09;6.43;;;1.90;;
65684;SDS011;52405;50.844;-1.062;2022-12-29T07:01:35;5.40;;;1.40;;
65684;SDS011;52405;50.844;-1.062;2022-12-29T07:04:02;5.53;;;1.25;;
65684;SDS011;52405;50.844;-1.062;2022-12-29T07:06:28;5.43;;;1.40;;
65684;SDS011;52405;50.844;-1.062;2022-12-29T07:08:54;13.02;;;1.67;;
65684;SDS011;52405;50.844;-1.062;2022-12-29T07:11:20;9.15;;;1.70;;
65684;SDS011;52405;50.844;-1.062;2022-12-29T07:13:46;4.38;;;1.35;;
65684;SDS011;52405;50.844;-1.062;2022-12-29T07:16:12;9.18;;;1.60;;
65684;SDS011;52405;50.844;-1.062;2022-12-29T07:18:37;4.95;;;1.70;;
65684;SDS011;52405;50.844;-1.062;2022-12-29T07:21:03;5.47;;;1.30;;
65684;SDS011;52405;50.844;-1.062;2022-12-29T07:23:29;8.65;;;1.67;;
65684;SDS011;52405;50.844;-1.062;2022-12-29T07:26:07;8.48;;;1.85;;
65684;SDS011;52405;50.844;-1.062;2022-12-29T07:28:35;4.32;;;1.75;;
65684;SDS011;52405;50.844;-1.062;2022-12-29T07:31:03;16.25;;;2.95;;
65684;SDS011;52405;50.844;-1.062;2022-12-29T07:33:30;4.90;;;1.77;;
65684;SDS011;52405;50.844;-1.062;2022-12-29T07:35:56;3.58;;;1.25;;
65684;SDS011;52405;50.844;-1.062;2022-12-29T07:38:22;10.70;;;1.90;;
65684;SDS011;52405;50.844;-1.062;2022-12-29T07:40:50;8.32;;;2.55;;
65684;SDS011;52405;50.844;-1.062;2022-12-29T07:43:15;14.38;;;2.10;;
65684;SDS011;52405;50.844;-1.062;2022-12-29T07:45:41;12.00;;;2.70;;
65684;SDS011;52405;50.844;-1.062;2022-12-29T07:48:06;11.82;;;2.28;;
65684;SDS011;52405;50.844;-1.062;2022-12-29T07:50:33;13.38;;;3.00;;
65684;SDS011;52405;50.844;-1.062;2022-12-29T07:53:02;20.10;;;3.67;;
65684;SDS011;52405;50.844;-1.062;2022-12-29T07:55:28;14.43;;;3.72;;
65684;SDS011;52405;50.844;-1.062;2022-12-29T07:57:54;17.17;;;3.63;;
65684;SDS011;52405;50.844;-1.062;2022-12-29T08:00:20;12.63;;;2.13;;
65684;SDS011;52405;50.844;-1.062;2022-12-29T08:02:46;26.73;;;3.60;;
65684;SDS011;52405;50.844;-1.062;2022-12-29T08:05:12;18.45;;;3.85;;
65684;SDS011;52405;50.844;-1.062;2022-12-29T08:07:37;11.60;;;2.72;;
65684;SDS011;52405;50.844;-1.062;2022-12-29T08:10:03;24.48;;;4.82;;
65684;SDS011;52405;50.844;-1.062;2022-12-29T08:12:29;14.80;;;3.53;;
65684;SDS011;52405;50.844;-1.062;2022-12-29T08:14:54;8.70;;;2.40;;
65684;SDS011;52405;50.844;-1.062;2022-12-29T08:17:22;16.25;;;2.33;;
65684;SDS011;52405;50.844;-1.062;2022-12-29T08:19:48;10.82;;;3.63;;
65684;SDS011;52405;50.844;-1.062;2022-12-29T08:22:13;10.05;;;2.05;;
65684;SDS011;52405;50.844;-1.062;2022-12-29T08:24:42;14.32;;;3.17;;
65684;SDS011;52405;50.844;-1.062;2022-12-29T08:27:07;19.42;;;4.40;;
65684;SDS011;52405;50.844;-1.062;2022-12-29T08:29:33;9.07;;;1.98;;
65684;SDS011;52405;50.844;-1.062;2022-12-29T08:31:58;16.40;;;3.92;;
65684;SDS011;52405;50.844;-1.062;2022-12-29T08:34:26;13.13;;;2.58;;
65684;SDS011;52405;50.844;-1.062;2022-12-29T08:36:52;14.15;;;2.13;;
65684;SDS011;52405;50.844;-1.062;2022-12-29T08:39:17;10.77;;;1.63;;
65684;SDS011;52405;50.844;-1.062;2022-12-29T08:41:47;8.95;;;2.00;;
65684;SDS011;52405;50.844;-1.062;2022-12-29T08:44:15;12.65;;;2.28;;
65684;SDS011;52405;50.844;-1.062;2022-12-29T08:46:43;11.45;;;1.73;;
65684;SDS011;52405;50.844;-1.062;2022-12-29T08:49:08;9.95;;;2.53;;
65684;SDS011;52405;50.844;-1.062;2022-12-29T08:51:36;8.85;;;1.90;;
65684;SDS011;52405;50.844;-1.062;2022-12-29T08:54:01;8.80;;;1.75;;
65684;SDS011;52405;50.844;-1.062;2022-12-29T08:56:27;7.18;;;1.55;;
65684;SDS011;52405;50.844;-1.062;2022-12-29T08:58:53;7.18;;;1.75;;
65684;SDS011;52405;50.844;-1.062;2022-12-29T09:01:19;6.60;;;2.30;;
65684;SDS011;52405;50.844;-1.062;2022-12-29T09:03:47;9.38;;;1.73;;
65684;SDS011;52405;50.844;-1.062;2022-12-29T09:06:13;5.47;;;2.15;;
65684;SDS011;52405;50.844;-1.062;2022-12-29T09:08:43;10.48;;;2.10;;
65684;SDS011;52405;50.844;-1.062;2022-12-29T09:13:43;7.22;;;1.58;;
65684;SDS011;52405;50.844;-1.062;2022-12-29T09:16:16;13.63;;;1.92;;
65684;SDS011;52405;50.844;-1.062;2022-12-29T09:18:42;8.57;;;2.25;;
65684;SDS011;52405;50.844;-1.062;2022-12-29T09:21:09;8.90;;;2.58;;
65684;SDS011;52405;50.844;-1.062;2022-12-29T09:23:38;11.80;;;2.72;;
65684;SDS011;52405;50.844;-1.062;2022-12-29T09:26:06;8.82;;;2.30;;
65684;SDS011;52405;50.844;-1.062;2022-12-29T09:28:32;7.53;;;1.77;;
65684;SDS011;52405;50.844;-1.062;2022-12-29T09:31:01;15.73;;;2.33;;
65684;SDS011;52405;50.844;-1.062;2022-12-29T09:33:26;7.60;;;1.65;;
65684;SDS011;52405;50.844;-1.062;2022-12-29T09:35:53;10.10;;;2.35;;
65684;SDS011;52405;50.844;-1.062;2022-12-29T09:38:23;11.57;;;1.65;;
65684;SDS011;52405;50.844;-1.062;2022-12-29T09:40:51;7.28;;;1.67;;
65684;SDS011;52405;50.844;-1.062;2022-12-29T09:48:51;7.55;;;1.42;;
65684;SDS011;52405;50.844;-1.062;2022-12-29T09:51:41;5.22;;;1.48;;
65684;SDS011;52405;50.844;-1.062;2022-12-29T09:56:55;6.65;;;1.92;;
65684;SDS011;52405;50.844;-1.062;2022-12-29T09:59:22;5.78;;;1.30;;
65684;SDS011;52405;50.844;-1.062;2022-12-29T10:02:21;7.70;;;1.42;;
65684;SDS011;52405;50.844;-1.062;2022-12-29T10:04:56;13.57;;;2.72;;
65684;SDS011;52405;50.844;-1.062;2022-12-29T10:07:31;13.10;;;3.22;;
65684;SDS011;52405;50.844;-1.062;2022-12-29T10:15:57;12.77;;;2.35;;
65684;SDS011;52405;50.844;-1.062;2022-12-29T10:21:36;7.03;;;2.10;;
65684;SDS011;52405;50.844;-1.062;2022-12-29T10:24:06;8.50;;;1.95;;
65684;SDS011;52405;50.844;-1.062;2022-12-29T10:26:42;8.60;;;1.88;;
65684;SDS011;52405;50.844;-1.062;2022-12-29T10:29:14;16.00;;;3.33;;
65684;SDS011;52405;50.844;-1.062;2022-12-29T10:31:44;7.47;;;2.23;;
65684;SDS011;52405;50.844;-1.062;2022-12-29T10:34:21;14.23;;;2.42;;
65684;SDS011;52405;50.844;-1.062;2022-12-29T10:37:00;8.60;;;2.30;;
65684;SDS011;52405;50.844;-1.062;2022-12-29T10:39:33;10.65;;;2.00;;
65684;SDS011;52405;50.844;-1.062;2022-12-29T10:44:37;6.55;;;1.45;;
65684;SDS011;52405;50.844;-1.062;2022-12-29T10:47:03;8.40;;;2.13;;
65684;SDS011;52405;50.844;-1.062;2022-12-29T10:49:36;14.52;;;2.58;;
65684;SDS011;52405;50.844;-1.062;2022-12-29T10:52:07;7.25;;;2.58;;
65684;SDS011;52405;50.844;-1.062;2022-12-29T10:57:52;10.45;;;2.83;;
65684;SDS011;52405;50.844;-1.062;2022-12-29T11:00:15;14.60;;;2.78;;
65684;SDS011;52405;50.844;-1.062;2022-12-29T11:08:02;13.30;;;3.17;;
65684;SDS011;52405;50.844;-1.062;2022-12-29T11:15:29;14.38;;;2.70;;
65684;SDS011;52405;50.844;-1.062;2022-12-29T11:18:03;17.48;;;2.65;;
65684;SDS011;52405;50.844;-1.062;2022-12-29T11:20:36;15.00;;;2.88;;
65684;SDS011;52405;50.844;-1.062;2022-12-29T11:23:05;19.30;;;3.30;;
65684;SDS011;52405;50.844;-1.062;2022-12-29T11:25:47;16.50;;;3.08;;
65684;SDS011;52405;50.844;-1.062;2022-12-29T11:28:31;13.18;;;3.28;;
65684;SDS011;52405;50.844;-1.062;2022-12-29T11:31:01;9.15;;;2.45;;
65684;SDS011;52405;50.844;-1.062;2022-12-29T11:33:28;13.25;;;2.13;;
65684;SDS011;52405;50.844;-1.062;2022-12-29T11:35:58;13.55;;;2.85;;
65684;SDS011;52405;50.844;-1.062;2022-12-29T11:38:33;9.43;;;1.67;;
65684;SDS011;52405;50.844;-1.062;2022-12-29T11:41:02;11.98;;;3.50;;
65684;SDS011;52405;50.844;-1.062;2022-12-29T11:43:33;15.98;;;3.00;;
65684;SDS011;52405;50.844;-1.062;2022-12-29T11:46:02;12.45;;;2.90;;
65684;SDS011;52405;50.844;-1.062;2022-12-29T11:48:31;13.88;;;2.42;;
65684;SDS011;52405;50.844;-1.062;2022-12-29T11:51:05;14.20;;;3.88;;
65684;SDS011;52405;50.844;-1.062;2022-12-29T11:53:46;12.38;;;2.97;;
65684;SDS011;52405;50.844;-1.062;2022-12-29T11:56:19;18.33;;;2.97;;
65684;SDS011;52405;50.844;-1.062;2022-12-29T11:58:48;17.85;;;3.25;;
65684;SDS011;52405;50.844;-1.062;2022-12-29T12:06:27;18.23;;;4.57;;
65684;SDS011;52405;50.844;-1.062;2022-12-29T12:08:55;11.20;;;2.65;;
65684;SDS011;52405;50.844;-1.062;2022-12-29T12:11:34;16.08;;;3.72;;
65684;SDS011;52405;50.844;-1.062;2022-12-29T12:16:43;12.63;;;3.13;;
65684;SDS011;52405;50.844;-1.062;2022-12-29T12:19:30;11.95;;;3.00;;
65684;SDS011;52405;50.844;-1.062;2022-12-29T12:22:36;16.98;;;3.45;;
65684;SDS011;52405;50.844;-1.062;2022-12-29T12:25:11;12.18;;;3.60;;
65684;SDS011;52405;50.844;-1.062;2022-12-29T12:27:53;15.18;;;3.05;;
65684;SDS011;52405;50.844;-1.062;2022-12-29T12:30:30;21.50;;;3.65;;
65684;SDS011;52405;50.844;-1.062;2022-12-29T12:33:06;16.65;;;4.22;;
65684;SDS011;52405;50.844;-1.062;2022-12-29T12:35:48;23.88;;;4.18;;
65684;SDS011;52405;50.844;-1.062;2022-12-29T12:41:06;15.60;;;4.55;;
65684;SDS011;52405;50.844;-1.062;2022-12-29T12:43:41;22.23;;;3.65;;
65684;SDS011;52405;50.844;-1.062;2022-12-29T13:00:49;20.00;;;5.20;;
65684;SDS011;52405;50.844;-1.062;2022-12-29T13:09:46;15.57;;;4.60;;
65684;SDS011;52405;50.844;-1.062;2022-12-29T13:22:42;15.10;;;2.97;;
65684;SDS011;52405;50.844;-1.062;2022-12-29T13:30:49;17.13;;;3.10;;
65684;SDS011;52405;50.844;-1.062;2022-12-29T13:36:51;15.32;;;4.07;;
65684;SDS011;52405;50.844;-1.062;2022-12-29T13:41:54;19.25;;;4.05;;
65684;SDS011;52405;50.844;-1.062;2022-12-29T13:44:26;16.67;;;3.47;;
65684;SDS011;52405;50.844;-1.062;2022-12-29T13:47:14;13.90;;;3.53;;
65684;SDS011;52405;50.844;-1.062;2022-12-29T13:50:02;14.77;;;3.17;;
65684;SDS011;52405;50.844;-1.062;2022-12-29T13:52:38;11.68;;;2.95;;
65684;SDS011;52405;50.844;-1.062;2022-12-29T14:00:26;18.05;;;4.43;;
65684;SDS011;52405;50.844;-1.062;2022-12-29T14:05:35;13.25;;;2.97;;
65684;SDS011;52405;50.844;-1.062;2022-12-29T14:08:04;20.10;;;5.18;;
65684;SDS011;52405;50.844;-1.062;2022-12-29T14:10:45;11.32;;;2.97;;
65684;SDS011;52405;50.844;-1.062;2022-12-29T14:13:17;10.02;;;2.90;;
65684;SDS011;52405;50.844;-1.062;2022-12-29T14:15:57;12.20;;;3.15;;
65684;SDS011;52405;50.844;-1.062;2022-12-29T14:21:00;18.80;;;3.88;;
65684;SDS011;52405;50.844;-1.062;2022-12-29T14:28:34;14.13;;;3.70;;
65684;SDS011;52405;50.844;-1.062;2022-12-29T14:31:48;11.05;;;2.58;;
65684;SDS011;52405;50.844;-1.062;2022-12-29T14:36:59;11.18;;;2.78;;
65684;SDS011;52405;50.844;-1.062;2022-12-29T14:39:37;15.73;;;2.47;;
65684;SDS011;52405;50.844;-1.062;2022-12-29T14:47:43;15.65;;;3.05;;
65684;SDS011;52405;50.844;-1.062;2022-12-29T14:52:47;16.60;;;2.78;;
65684;SDS011;52405;50.844;-1.062;2022-12-29T14:57:43;15.38;;;2.22;;
65684;SDS011;52405;50.844;-1.062;2022-12-29T15:00:15;8.27;;;2.78;;
65684;SDS011;52405;50.844;-1.062;2022-12-29T15:02:47;9.70;;;2.03;;
65684;SDS011;52405;50.844;-1.062;2022-12-29T15:07:59;9.77;;;1.92;;
65684;SDS011;52405;50.844;-1.062;2022-12-29T15:10:26;9.73;;;3.95;;
65684;SDS011;52405;50.844;-1.062;2022-12-29T15:13:04;10.48;;;3.45;;
65684;SDS011;52405;50.844;-1.062;2022-12-29T15:15:38;11.20;;;3.58;;
65684;SDS011;52405;50.844;-1.062;2022-12-29T15:20:50;15.57;;;1.88;;
65684;SDS011;52405;50.844;-1.062;2022-12-29T15:23:20;5.93;;;1.58;;
65684;SDS011;52405;50.844;-1.062;2022-12-29T15:28:52;16.15;;;2.83;;
65684;SDS011;52405;50.844;-1.062;2022-12-29T15:33:47;13.60;;;2.38;;
65684;SDS011;52405;50.844;-1.062;2022-12-29T15:36:19;15.90;;;5.28;;
65684;SDS011;52405;50.844;-1.062;2022-12-29T15:38:46;14.00;;;3.78;;
65684;SDS011;52405;50.844;-1.062;2022-12-29T15:44:45;20.80;;;2.90;;
65684;SDS011;52405;50.844;-1.062;2022-12-29T15:47:24;9.77;;;2.38;;
65684;SDS011;52405;50.844;-1.062;2022-12-29T15:49:54;17.02;;;2.72;;
65684;SDS011;52405;50.844;-1.062;2022-12-29T15:52:29;15.05;;;4.85;;
65684;SDS011;52405;50.844;-1.062;2022-12-29T15:54:57;16.23;;;3.35;;
65684;SDS011;52405;50.844;-1.062;2022-12-29T15:59:57;18.65;;;4.93;;
65684;SDS011;52405;50.844;-1.062;2022-12-29T16:02:25;23.75;;;4.72;;
65684;SDS011;52405;50.844;-1.062;2022-12-29T16:04:51;17.27;;;4.10;;
65684;SDS011;52405;50.844;-1.062;2022-12-29T16:07:28;14.75;;;3.45;;
65684;SDS011;52405;50.844;-1.062;2022-12-29T16:10:00;18.63;;;4.90;;
65684;SDS011;52405;50.844;-1.062;2022-12-29T16:12:36;19.98;;;4.35;;
65684;SDS011;52405;50.844;-1.062;2022-12-29T16:15:04;11.82;;;2.90;;
65684;SDS011;52405;50.844;-1.062;2022-12-29T16:17:34;18.90;;;3.65;;
65684;SDS011;52405;50.844;-1.062;2022-12-29T16:20:17;15.95;;;3.17;;
65684;SDS011;52405;50.844;-1.062;2022-12-29T16:22:50;26.65;;;5.25;;
65684;SDS011;52405;50.844;-1.062;2022-12-29T16:25:22;11.27;;;3.60;;
65684;SDS011;52405;50.844;-1.062;2022-12-29T16:27:50;15.82;;;2.85;;
65684;SDS011;52405;50.844;-1.062;2022-12-29T16:30:24;14.80;;;2.60;;
65684;SDS011;52405;50.844;-1.062;2022-12-29T16:32:53;18.05;;;2.50;;
65684;SDS011;52405;50.844;-1.062;2022-12-29T16:35:25;22.30;;;3.72;;
65684;SDS011;52405;50.844;-1.062;2022-12-29T16:40:49;19.27;;;3.90;;
65684;SDS011;52405;50.844;-1.062;2022-12-29T16:43:28;16.80;;;3.53;;
65684;SDS011;52405;50.844;-1.062;2022-12-29T16:46:16;10.18;;;2.47;;
65684;SDS011;52405;50.844;-1.062;2022-12-29T16:48:48;12.02;;;2.30;;
65684;SDS011;52405;50.844;-1.062;2022-12-29T16:51:28;14.68;;;3.03;;
65684;SDS011;52405;50.844;-1.062;2022-12-29T16:54:00;7.60;;;2.50;;
65684;SDS011;52405;50.844;-1.062;2022-12-29T16:56:28;16.50;;;2.88;;
65684;SDS011;52405;50.844;-1.062;2022-12-29T16:59:01;18.45;;;3.45;;
65684;SDS011;52405;50.844;-1.062;2022-12-29T17:01:27;16.70;;;4.35;;
65684;SDS011;52405;50.844;-1.062;2022-12-29T17:03:59;14.20;;;2.38;;
65684;SDS011;52405;50.844;-1.062;2022-12-29T17:06:30;13.63;;;3.08;;
65684;SDS011;52405;50.844;-1.062;2022-12-29T17:08:56;15.43;;;3.00;;
65684;SDS011;52405;50.844;-1.062;2022-12-29T17:14:17;12.80;;;2.17;;
65684;SDS011;52405;50.844;-1.062;2022-12-29T17:16:54;11.02;;;2.25;;
65684;SDS011;52405;50.844;-1.062;2022-12-29T17:19:20;13.40;;;3.22;;
65684;SDS011;52405;50.844;-1.062;2022-12-29T17:21:54;16.02;;;3.40;;
65684;SDS011;52405;50.844;-1.062;2022-12-29T17:24:19;16.63;;;3.65;;
65684;SDS011;52405;50.844;-1.062;2022-12-29T17:26:46;10.38;;;2.70;;
65684;SDS011;52405;50.844;-1.062;2022-12-29T17:32:09;18.35;;;4.63;;
65684;SDS011;52405;50.844;-1.062;2022-12-29T17:34:38;10.75;;;3.65;;
65684;SDS011;52405;50.844;-1.062;2022-12-29T17:39:49;12.82;;;3.40;;
65684;SDS011;52405;50.844;-1.062;2022-12-29T17:42:15;25.17;;;4.38;;
65684;SDS011;52405;50.844;-1.062;2022-12-29T17:44:45;23.52;;;4.60;;
65684;SDS011;52405;50.844;-1.062;2022-12-29T17:47:11;17.50;;;3.38;;
65684;SDS011;52405;50.844;-1.062;2022-12-29T17:49:39;14.25;;;3.33;;
65684;SDS011;52405;50.844;-1.062;2022-12-29T17:52:10;21.58;;;3.72;;